Time;durP1;ratioP1;P1;durP2;ratioP2;P2;SDS_P1;SDS_P2;PMS_P1;PMS_P2;Temp;Humidity;BMP_temperature;BMP_pressure;BME280_temperature;BME280_humidity;BME280_pressure;Samples;Min_cycle;Max_cycle;Signal;HPM_P1;HPM_P2
2023/08/14 00:00:31;;;;;;;2.40;1.70;;;25.00;94.30;;;;;;5061069;28;20208;-84
2023/08/14 00:02:56;;;;;;;2.90;2.10;;;25.10;94.30;;;;;;5065225;28;20195;-84
2023/08/14 00:05:22;;;;;;;2.37;1.60;;;25.00;94.30;;;;;;5064960;28;20587;-84
2023/08/14 00:07:48;;;;;;;1.90;1.60;;;25.00;94.20;;;;;;5063891;28;20200;-85
2023/08/14 00:10:13;;;;;;;1.83;1.57;;;25.00;94.30;;;;;;5066131;28;20176;-85
2023/08/14 00:12:39;;;;;;;2.67;1.90;;;25.00;94.30;;;;;;5059765;28;20181;-84
2023/08/14 00:15:05;;;;;;;2.17;1.80;;;25.00;94.30;;;;;;5061456;28;20190;-84
2023/08/14 00:17:31;;;;;;;2.13;1.80;;;24.90;94.30;;;;;;5062439;28;20203;-84
2023/08/14 00:19:57;;;;;;;3.23;2.10;;;24.90;94.30;;;;;;5067048;28;20230;-84
2023/08/14 00:22:22;;;;;;;2.63;1.83;;;24.90;94.40;;;;;;5058022;28;20255;-84
2023/08/14 00:24:48;;;;;;;2.13;1.70;;;24.90;94.40;;;;;;5062652;28;20469;-85
2023/08/14 00:27:14;;;;;;;2.20;1.80;;;24.90;94.30;;;;;;5062605;28;20501;-85
2023/08/14 00:29:40;;;;;;;2.33;1.70;;;24.90;94.30;;;;;;5064751;28;20237;-85
2023/08/14 00:32:05;;;;;;;3.13;1.47;;;24.90;94.40;;;;;;5063124;28;20184;-84
2023/08/14 00:34:31;;;;;;;2.13;1.60;;;24.90;94.40;;;;;;5063921;28;20171;-84
2023/08/14 00:36:57;;;;;;;2.67;1.70;;;24.90;94.30;;;;;;5066934;28;20186;-84
2023/08/14 00:39:22;;;;;;;1.67;1.57;;;24.80;94.40;;;;;;5065529;28;20184;-84
2023/08/14 00:41:48;;;;;;;2.73;1.60;;;24.90;94.40;;;;;;5066894;28;20256;-84
2023/08/14 00:44:14;;;;;;;3.00;1.63;;;24.90;94.30;;;;;;5068880;28;20249;-84
2023/08/14 00:46:40;;;;;;;3.27;1.60;;;24.90;94.30;;;;;;5064769;28;20187;-84
2023/08/14 00:49:06;;;;;;;3.37;1.73;;;24.80;94.30;;;;;;5062950;28;20216;-84
2023/08/14 00:51:33;;;;;;;2.03;1.80;;;24.80;94.30;;;;;;5065488;28;20286;-84
2023/08/14 00:53:58;;;;;;;2.80;1.90;;;24.80;94.30;;;;;;5061837;28;20280;-84
2023/08/14 00:56:24;;;;;;;2.17;1.70;;;24.80;94.20;;;;;;5066565;28;20274;-84
2023/08/14 00:58:51;;;;;;;2.53;1.83;;;24.80;94.20;;;;;;5063357;28;20237;-84
2023/08/14 01:01:17;;;;;;;2.87;1.70;;;24.80;94.30;;;;;;5059817;28;20196;-84
2023/08/14 01:03:44;;;;;;;2.70;1.70;;;24.80;94.20;;;;;;5064842;28;20289;-85
2023/08/14 01:06:09;;;;;;;2.33;1.70;;;24.80;94.30;;;;;;5061505;28;20274;-85
2023/08/14 01:08:35;;;;;;;2.20;1.80;;;24.80;94.30;;;;;;5061485;28;20307;-85
2023/08/14 01:11:32;;;;;;;2.63;1.87;;;24.80;94.20;;;;;;5060556;28;20328;-84
2023/08/14 01:14:25;;;;;;;2.60;1.63;;;24.70;94.20;;;;;;5063168;28;20204;-84
2023/08/14 01:16:56;;;;;;;1.90;1.70;;;24.70;94.20;;;;;;5061984;28;20200;-84
2023/08/14 01:19:28;;;;;;;2.20;1.50;;;24.80;94.30;;;;;;5060864;28;20183;-84
2023/08/14 01:22:04;;;;;;;3.97;1.80;;;24.70;94.20;;;;;;5041574;28;20196;-84
2023/08/14 01:24:55;;;;;;;1.87;1.60;;;24.70;94.30;;;;;;5062623;28;20192;-84
2023/08/14 01:27:22;;;;;;;2.03;1.63;;;24.70;94.30;;;;;;5064671;28;20219;-84
2023/08/14 01:29:57;;;;;;;1.50;1.40;;;24.70;94.50;;;;;;5063688;28;20180;-84
2023/08/14 01:32:22;;;;;;;2.10;1.63;;;24.70;94.30;;;;;;5058414;28;20265;-84
2023/08/14 01:34:48;;;;;;;2.17;1.80;;;24.70;94.30;;;;;;5059341;28;20563;-84
2023/08/14 01:37:30;;;;;;;2.20;1.50;;;24.60;94.20;;;;;;5063439;28;20295;-84
2023/08/14 01:40:06;;;;;;;2.50;1.80;;;24.60;94.20;;;;;;5061253;28;20188;-84
2023/08/14 01:42:36;;;;;;;2.17;1.70;;;24.70;94.20;;;;;;5058292;28;20185;-84
2023/08/14 01:45:07;;;;;;;3.23;1.80;;;24.60;94.20;;;;;;5071345;28;20475;-84
2023/08/14 01:47:34;;;;;;;2.00;1.80;;;24.60;94.20;;;;;;5063294;28;20240;-84
2023/08/14 01:50:01;;;;;;;1.70;1.60;;;24.60;94.20;;;;;;5060810;28;20541;-84
2023/08/14 01:52:27;;;;;;;2.37;1.70;;;24.60;94.20;;;;;;5064644;28;20646;-84
2023/08/14 01:54:53;;;;;;;3.40;1.70;;;24.60;94.20;;;;;;5066297;28;20179;-84
2023/08/14 01:57:18;;;;;;;3.30;1.80;;;24.60;94.20;;;;;;5067330;28;20310;-84
2023/08/14 01:59:47;;;;;;;1.70;1.60;;;24.60;94.20;;;;;;5065196;28;20179;-84
2023/08/14 02:02:13;;;;;;;2.67;1.87;;;24.60;94.20;;;;;;5044209;28;20358;-84
2023/08/14 02:04:39;;;;;;;2.53;1.90;;;24.60;94.20;;;;;;5061633;28;20188;-84
2023/08/14 02:07:14;;;;;;;2.13;1.70;;;24.50;94.10;;;;;;5062741;28;20189;-84
2023/08/14 02:09:40;;;;;;;2.03;1.83;;;24.50;94.10;;;;;;5063774;28;20470;-84
2023/08/14 02:12:06;;;;;;;2.00;1.70;;;24.50;94.20;;;;;;5061664;28;20191;-85
2023/08/14 02:14:31;;;;;;;2.73;1.70;;;24.50;94.10;;;;;;5064429;28;20584;-85
2023/08/14 02:16:57;;;;;;;2.40;1.67;;;24.50;94.10;;;;;;5066683;28;20182;-84
2023/08/14 02:19:23;;;;;;;3.03;1.90;;;24.50;94.10;;;;;;5062864;28;20191;-84
2023/08/14 02:21:49;;;;;;;2.97;1.70;;;24.50;94.10;;;;;;5066174;28;20179;-84
2023/08/14 02:24:15;;;;;;;4.13;1.90;;;24.50;94.10;;;;;;5041743;28;20629;-84
2023/08/14 02:26:41;;;;;;;3.43;1.80;;;24.40;94.10;;;;;;5062113;28;20584;-84
2023/08/14 02:29:07;;;;;;;2.43;1.67;;;24.40;94.20;;;;;;5064667;28;20260;-84
2023/08/14 02:31:33;;;;;;;4.07;1.70;;;24.40;94.10;;;;;;5061803;28;20191;-84
2023/08/14 02:34:00;;;;;;;2.53;1.50;;;24.40;94.10;;;;;;5061436;28;20175;-84
2023/08/14 02:36:27;;;;;;;2.10;1.60;;;24.40;94.10;;;;;;5065526;28;20427;-84
2023/08/14 02:38:53;;;;;;;3.37;1.90;;;24.40;94.10;;;;;;5065114;28;20187;-84
2023/08/14 02:41:19;;;;;;;2.30;1.70;;;24.40;94.10;;;;;;5063771;28;20175;-84
2023/08/14 02:43:45;;;;;;;3.80;1.90;;;24.40;94.10;;;;;;5062938;28;20561;-84
2023/08/14 02:46:11;;;;;;;2.63;1.70;;;24.40;94.00;;;;;;5059502;28;20237;-84
2023/08/14 02:48:37;;;;;;;2.80;1.80;;;24.40;94.10;;;;;;5056341;28;20598;-85
2023/08/14 02:51:03;;;;;;;2.23;1.70;;;24.40;94.10;;;;;;5063182;28;20172;-84
2023/08/14 02:53:29;;;;;;;1.90;1.53;;;24.40;94.10;;;;;;5059672;28;20184;-84
2023/08/14 02:55:56;;;;;;;2.40;1.77;;;24.30;94.10;;;;;;5063829;28;20176;-84
2023/08/14 02:58:21;;;;;;;2.43;1.73;;;24.40;94.20;;;;;;5061575;28;20505;-84
2023/08/14 03:00:48;;;;;;;1.97;1.60;;;24.40;94.10;;;;;;5061956;28;20180;-85
2023/08/14 03:03:14;;;;;;;2.50;1.80;;;24.30;94.00;;;;;;5065785;28;20192;-84
2023/08/14 03:05:40;;;;;;;4.10;1.90;;;24.30;94.00;;;;;;5065112;28;20558;-84
2023/08/14 03:08:07;;;;;;;2.13;1.60;;;24.30;94.10;;;;;;5062767;28;20308;-84
2023/08/14 03:10:32;;;;;;;2.10;1.63;;;24.30;94.10;;;;;;5061687;28;20209;-84
2023/08/14 03:13:00;;;;;;;3.17;1.70;;;24.20;94.10;;;;;;5059953;28;20458;-84
2023/08/14 03:15:25;;;;;;;3.23;1.80;;;24.20;94.20;;;;;;5060232;28;20183;-84
2023/08/14 03:17:51;;;;;;;2.97;1.60;;;24.30;94.10;;;;;;5060602;28;20184;-84
2023/08/14 03:20:17;;;;;;;1.90;1.70;;;24.20;94.10;;;;;;5060814;28;20499;-84
2023/08/14 03:22:42;;;;;;;2.23;1.83;;;24.20;94.00;;;;;;5059721;28;20188;-85
2023/08/14 03:25:08;;;;;;;2.10;1.80;;;24.20;94.00;;;;;;5056863;28;20195;-84
2023/08/14 03:27:34;;;;;;;2.43;1.60;;;24.20;94.00;;;;;;5054447;28;20211;-84
2023/08/14 03:30:00;;;;;;;3.43;1.90;;;24.20;94.00;;;;;;5059345;28;20175;-84
2023/08/14 03:32:26;;;;;;;1.90;1.63;;;24.20;94.10;;;;;;5056182;28;20185;-84
2023/08/14 03:34:51;;;;;;;3.30;1.77;;;24.20;94.00;;;;;;5056578;28;20566;-84
2023/08/14 03:37:17;;;;;;;1.60;1.43;;;24.20;94.00;;;;;;5061167;28;20183;-84
2023/08/14 03:39:43;;;;;;;2.83;1.73;;;24.20;94.00;;;;;;5058906;28;20180;-85
2023/08/14 03:42:11;;;;;;;1.97;1.60;;;24.20;94.00;;;;;;5063698;28;20175;-84
2023/08/14 03:44:36;;;;;;;2.13;1.70;;;24.20;94.00;;;;;;5064857;28;20192;-84
2023/08/14 03:47:02;;;;;;;2.57;1.70;;;24.20;93.90;;;;;;5065727;28;20496;-84
2023/08/14 03:49:28;;;;;;;2.77;1.80;;;24.20;94.00;;;;;;5063732;28;20374;-84
2023/08/14 03:51:54;;;;;;;2.30;1.73;;;24.10;93.90;;;;;;5065150;28;20179;-84
2023/08/14 03:54:19;;;;;;;2.43;1.50;;;24.10;94.00;;;;;;5063057;28;20188;-84
2023/08/14 03:56:45;;;;;;;3.33;1.70;;;24.10;93.90;;;;;;5063791;28;20570;-84
2023/08/14 03:59:12;;;;;;;2.17;1.67;;;24.10;94.00;;;;;;5061202;28;20176;-84
2023/08/14 04:01:39;;;;;;;2.23;2.00;;;24.10;93.90;;;;;;5064204;28;20228;-84
2023/08/14 04:04:05;;;;;;;3.33;1.70;;;24.10;94.00;;;;;;5058894;28;20319;-84
2023/08/14 04:06:31;;;;;;;2.20;1.43;;;24.10;94.00;;;;;;5068517;28;20574;-84
2023/08/14 04:08:57;;;;;;;2.43;1.80;;;24.10;93.90;;;;;;5060348;28;20242;-84
2023/08/14 04:11:24;;;;;;;2.17;1.60;;;24.10;93.90;;;;;;5061325;28;20194;-84
2023/08/14 04:13:49;;;;;;;2.13;1.70;;;24.00;94.00;;;;;;5060484;28;20266;-84
2023/08/14 04:16:15;;;;;;;2.17;1.73;;;24.00;94.00;;;;;;5062622;28;20296;-84
2023/08/14 04:18:41;;;;;;;3.23;1.97;;;24.00;94.00;;;;;;5063238;28;20212;-84
2023/08/14 04:21:06;;;;;;;2.20;1.63;;;24.00;94.00;;;;;;5062802;28;20523;-84
2023/08/14 04:23:32;;;;;;;2.53;1.90;;;24.00;94.10;;;;;;5064194;28;20180;-84
2023/08/14 04:25:58;;;;;;;2.77;1.80;;;24.00;94.10;;;;;;5062814;28;20184;-84
2023/08/14 04:28:23;;;;;;;2.53;1.90;;;24.00;94.10;;;;;;5062885;28;20207;-84
2023/08/14 04:30:49;;;;;;;6.00;2.00;;;24.00;94.10;;;;;;5065471;28;20468;-84
2023/08/14 04:33:16;;;;;;;1.60;1.50;;;24.00;94.10;;;;;;5062724;28;20172;-84
2023/08/14 04:35:42;;;;;;;2.77;1.70;;;23.90;94.10;;;;;;5066917;28;20172;-84
2023/08/14 04:38:08;;;;;;;1.63;1.50;;;24.00;94.10;;;;;;5060086;28;20286;-84
2023/08/14 04:40:34;;;;;;;2.23;2.00;;;24.00;94.00;;;;;;5064362;28;20179;-84
2023/08/14 04:43:00;;;;;;;3.77;1.80;;;24.00;94.00;;;;;;5061144;28;20187;-84
2023/08/14 04:45:25;;;;;;;1.87;1.60;;;24.00;94.00;;;;;;5061917;28;20206;-84
2023/08/14 04:47:51;;;;;;;2.30;1.70;;;24.00;94.00;;;;;;5060939;28;20206;-84
2023/08/14 04:50:17;;;;;;;3.47;1.80;;;24.00;94.10;;;;;;5061495;28;20180;-84
2023/08/14 04:52:43;;;;;;;3.23;1.70;;;24.00;94.10;;;;;;5060571;28;20172;-84
2023/08/14 04:55:08;;;;;;;3.13;2.00;;;23.90;94.10;;;;;;5059568;28;20330;-84
2023/08/14 04:57:34;;;;;;;2.53;1.70;;;23.90;94.10;;;;;;5062474;28;20191;-85
2023/08/14 05:00:00;;;;;;;2.33;1.70;;;23.90;94.10;;;;;;5062008;28;20171;-84
2023/08/14 05:02:28;;;;;;;3.17;1.57;;;24.00;94.10;;;;;;5066395;28;20613;-84
2023/08/14 05:04:54;;;;;;;3.00;1.73;;;24.00;94.10;;;;;;5059911;28;20188;-84
2023/08/14 05:07:20;;;;;;;2.83;1.70;;;24.00;94.10;;;;;;5061003;28;20218;-83
2023/08/14 05:09:48;;;;;;;2.63;1.57;;;24.00;94.10;;;;;;5054940;28;20697;-84
2023/08/14 05:12:14;;;;;;;2.17;1.60;;;24.00;94.10;;;;;;5056124;28;20173;-84
2023/08/14 05:14:39;;;;;;;2.43;1.70;;;24.00;94.00;;;;;;5062697;28;20461;-84
2023/08/14 05:17:05;;;;;;;1.70;1.50;;;24.00;93.90;;;;;;5055122;28;20421;-84
2023/08/14 05:19:31;;;;;;;2.77;1.87;;;24.10;93.80;;;;;;5060410;28;20172;-84
2023/08/14 05:21:56;;;;;;;3.10;2.00;;;24.00;93.80;;;;;;5061673;28;20186;-84
2023/08/14 05:24:22;;;;;;;4.10;2.10;;;24.10;93.80;;;;;;5053414;28;20282;-84
2023/08/14 05:26:48;;;;;;;2.93;2.10;;;24.10;93.80;;;;;;5055713;28;20180;-84
2023/08/14 05:29:15;;;;;;;2.87;2.10;;;24.20;93.80;;;;;;5052899;28;20461;-84
2023/08/14 05:31:40;;;;;;;3.17;2.53;;;24.20;93.90;;;;;;5057199;28;20335;-84
2023/08/14 05:34:06;;;;;;;4.13;2.30;;;24.10;93.80;;;;;;5056713;28;20194;-85
2023/08/14 05:36:32;;;;;;;4.93;2.27;;;24.10;94.00;;;;;;5058263;28;20349;-85
2023/08/14 05:38:58;;;;;;;3.80;2.50;;;24.10;94.10;;;;;;5054599;28;20202;-84
2023/08/14 05:41:23;;;;;;;3.47;2.50;;;24.00;94.30;;;;;;5052892;28;20195;-85
2023/08/14 05:43:49;;;;;;;5.23;2.57;;;23.90;94.40;;;;;;5051552;28;20188;-85
2023/08/14 05:46:15;;;;;;;3.00;2.13;;;23.90;94.70;;;;;;5051539;28;20381;-84
2023/08/14 05:48:41;;;;;;;2.57;2.27;;;23.90;94.80;;;;;;5053436;28;20422;-84
2023/08/14 05:51:07;;;;;;;3.97;2.20;;;23.80;94.90;;;;;;5053517;28;20240;-85
2023/08/14 05:53:33;;;;;;;4.50;2.90;;;23.90;95.00;;;;;;5050221;28;20188;-84
2023/08/14 05:55:58;;;;;;;3.13;2.40;;;23.90;95.00;;;;;;5056440;28;20175;-84
2023/08/14 05:58:24;;;;;;;5.17;2.60;;;23.90;95.00;;;;;;5050429;28;20185;-84
2023/08/14 06:00:50;;;;;;;6.23;2.80;;;23.90;94.90;;;;;;5054795;28;20294;-85
2023/08/14 06:03:16;;;;;;;4.17;2.73;;;23.90;94.90;;;;;;5052293;28;20445;-85
2023/08/14 06:05:42;;;;;;;5.53;3.00;;;23.90;94.80;;;;;;5056028;28;20195;-85
2023/08/14 06:08:07;;;;;;;4.23;3.03;;;23.90;94.80;;;;;;5053177;28;20409;-84
2023/08/14 06:10:33;;;;;;;4.30;3.20;;;23.90;94.80;;;;;;5059087;28;20182;-84
2023/08/14 06:12:59;;;;;;;6.60;3.40;;;24.00;94.70;;;;;;5057954;28;20233;-85
2023/08/14 06:15:25;;;;;;;5.43;3.63;;;24.00;94.70;;;;;;5057409;28;20187;-85
2023/08/14 06:17:51;;;;;;;7.50;4.10;;;24.10;94.60;;;;;;5051958;28;20556;-85
2023/08/14 06:20:17;;;;;;;5.10;4.17;;;24.10;94.40;;;;;;5053391;28;20218;-84
2023/08/14 06:22:44;;;;;;;7.97;4.50;;;24.20;94.40;;;;;;5051122;28;20186;-85
2023/08/14 06:25:13;;;;;;;4.93;4.43;;;24.20;94.20;;;;;;5045659;28;20180;-85
2023/08/14 06:27:40;;;;;;;8.17;5.03;;;24.30;94.00;;;;;;5053246;28;20529;-84
2023/08/14 06:30:08;;;;;;;6.70;5.83;;;24.30;94.10;;;;;;5051007;28;20734;-85
2023/08/14 06:32:34;;;;;;;6.30;5.40;;;24.30;94.00;;;;;;5053612;28;20203;-85
2023/08/14 06:35:00;;;;;;;8.27;5.70;;;24.40;94.00;;;;;;5054198;28;20330;-84
2023/08/14 06:37:26;;;;;;;8.47;5.43;;;24.40;93.90;;;;;;5055219;28;20231;-85
2023/08/14 06:39:51;;;;;;;9.07;6.20;;;24.40;93.80;;;;;;5054890;28;20215;-85
2023/08/14 06:42:17;;;;;;;8.00;5.80;;;24.40;93.90;;;;;;5059610;28;20530;-84
2023/08/14 06:44:43;;;;;;;8.43;5.90;;;24.50;93.80;;;;;;5055758;28;20179;-85
2023/08/14 06:47:09;;;;;;;7.67;6.20;;;24.50;93.70;;;;;;5051582;28;20184;-84
2023/08/14 06:49:34;;;;;;;7.93;5.47;;;24.50;93.60;;;;;;5048574;28;20192;-85
2023/08/14 06:52:01;;;;;;;8.97;5.83;;;24.60;93.50;;;;;;5053368;28;20451;-85
2023/08/14 06:54:27;;;;;;;8.10;5.90;;;24.60;93.50;;;;;;5048827;28;20180;-85
2023/08/14 06:56:52;;;;;;;12.20;5.90;;;24.70;93.30;;;;;;5056298;28;20176;-84
2023/08/14 06:59:18;;;;;;;6.97;5.70;;;24.60;93.30;;;;;;5048195;28;20189;-84
2023/08/14 07:01:44;;;;;;;6.70;5.30;;;24.60;93.20;;;;;;5052551;28;20588;-85
2023/08/14 07:04:10;;;;;;;6.97;5.57;;;24.70;93.30;;;;;;5051283;28;20327;-85
2023/08/14 07:06:36;;;;;;;8.30;5.63;;;24.70;93.20;;;;;;5051751;28;20210;-85
2023/08/14 07:09:02;;;;;;;7.23;5.73;;;24.70;93.10;;;;;;5051925;28;20227;-85
2023/08/14 07:11:28;;;;;;;10.07;6.03;;;24.80;93.00;;;;;;5049449;28;20462;-85
2023/08/14 07:13:54;;;;;;;9.07;6.10;;;24.80;93.10;;;;;;5053239;28;20313;-85
2023/08/14 07:16:20;;;;;;;7.70;5.67;;;24.80;93.00;;;;;;5053703;28;20201;-85
2023/08/14 07:18:46;;;;;;;9.43;5.60;;;24.90;93.10;;;;;;5058109;28;20187;-85
2023/08/14 07:21:12;;;;;;;7.83;5.47;;;24.90;92.90;;;;;;5059373;28;20180;-85
2023/08/14 07:23:38;;;;;;;9.43;5.70;;;24.90;93.00;;;;;;5054689;28;20414;-85
2023/08/14 07:26:03;;;;;;;7.67;5.10;;;24.90;93.00;;;;;;5052219;28;20335;-84
2023/08/14 07:28:30;;;;;;;6.83;5.23;;;25.00;92.90;;;;;;5059078;28;20265;-85
2023/08/14 07:30:55;;;;;;;9.83;5.80;;;25.00;92.80;;;;;;5054609;28;20180;-85
2023/08/14 07:33:21;;;;;;;7.10;5.33;;;25.00;92.90;;;;;;5058738;28;20195;-85
2023/08/14 07:35:46;;;;;;;6.33;4.80;;;25.10;92.80;;;;;;5052134;28;20189;-85
2023/08/14 07:38:13;;;;;;;6.53;4.67;;;25.10;92.70;;;;;;5055013;28;20311;-85
2023/08/14 07:40:38;;;;;;;7.23;5.00;;;25.10;92.60;;;;;;5056747;28;20572;-84
2023/08/14 07:43:04;;;;;;;7.37;4.70;;;25.10;92.60;;;;;;5055258;28;20385;-85
2023/08/14 07:45:29;;;;;;;7.77;4.80;;;25.20;92.50;;;;;;5058013;28;20234;-85
2023/08/14 07:47:55;;;;;;;5.07;4.57;;;25.20;92.40;;;;;;5053734;28;20371;-84
2023/08/14 07:50:21;;;;;;;6.53;4.67;;;25.20;92.40;;;;;;5055609;28;20283;-85
2023/08/14 07:52:47;;;;;;;5.60;4.53;;;25.30;92.40;;;;;;5055202;28;20183;-85
2023/08/14 07:55:12;;;;;;;5.43;4.30;;;25.30;92.30;;;;;;5060243;28;20555;-84
2023/08/14 07:57:40;;;;;;;4.80;4.30;;;25.40;92.20;;;;;;5059702;28;20280;-85
2023/08/14 08:00:09;;;;;;;6.40;4.30;;;25.40;92.00;;;;;;5058905;28;20187;-84
2023/08/14 08:02:34;;;;;;;6.87;3.87;;;25.50;91.80;;;;;;5060535;28;20203;-84
2023/08/14 08:05:00;;;;;;;6.20;4.47;;;25.60;91.60;;;;;;5056920;28;20482;-85
2023/08/14 08:07:26;;;;;;;5.10;3.87;;;25.60;91.50;;;;;;5067311;28;20183;-85
2023/08/14 08:09:51;;;;;;;5.30;3.97;;;25.60;91.50;;;;;;5057750;28;20188;-85
2023/08/14 08:12:17;;;;;;;6.30;3.97;;;25.60;91.70;;;;;;5058111;28;20183;-84
2023/08/14 08:14:43;;;;;;;6.67;3.90;;;25.70;91.40;;;;;;5057267;28;20526;-85
2023/08/14 08:17:10;;;;;;;5.17;3.83;;;25.70;91.30;;;;;;5058347;28;20172;-84
2023/08/14 08:19:35;;;;;;;4.88;3.40;;;26.00;90.60;;;;;;5057354;28;20176;-84
2023/08/14 08:22:01;;;;;;;5.93;3.72;;;26.20;90.30;;;;;;5055453;28;20176;-84
2023/08/14 08:24:26;;;;;;;4.95;3.58;;;26.10;90.10;;;;;;5052518;28;20172;-84
2023/08/14 08:26:53;;;;;;;4.72;3.50;;;26.10;90.10;;;;;;5054852;28;20259;-84
2023/08/14 08:29:19;;;;;;;5.88;3.65;;;26.40;89.40;;;;;;5052791;28;20535;-84
2023/08/14 08:31:44;;;;;;;7.32;3.75;;;26.60;87.70;;;;;;5054471;28;20230;-84
2023/08/14 08:34:10;;;;;;;5.00;3.60;;;26.60;87.10;;;;;;5051732;28;20340;-84
2023/08/14 08:36:36;;;;;;;5.32;3.25;;;26.80;87.00;;;;;;5055689;28;20682;-84
2023/08/14 08:39:02;;;;;;;5.00;3.30;;;26.90;85.70;;;;;;5048992;28;20354;-84
2023/08/14 08:41:37;;;;;;;6.55;3.60;;;27.00;84.70;;;;;;5051210;28;20433;-85
2023/08/14 08:44:32;;;;;;;4.00;3.00;;;27.20;83.50;;;;;;5053676;28;20245;-86
2023/08/14 08:47:06;;;;;;;4.65;2.83;;;27.50;81.70;;;;;;5030133;28;20229;-86
2023/08/14 08:49:33;;;;;;;5.35;3.20;;;27.80;80.00;;;;;;5054744;28;20211;-86
2023/08/14 08:52:09;;;;;;;3.63;3.03;;;28.00;78.60;;;;;;5051501;28;20182;-86
2023/08/14 08:54:36;;;;;;;4.63;3.15;;;28.20;77.40;;;;;;5034586;28;20188;-86
2023/08/14 08:57:04;;;;;;;4.93;3.13;;;28.50;75.90;;;;;;5055324;28;20179;-86
2023/08/14 08:59:32;;;;;;;4.75;2.85;;;28.50;75.10;;;;;;5053067;28;20185;-85
2023/08/14 09:01:58;;;;;;;5.22;3.42;;;28.70;73.90;;;;;;5054415;28;20226;-86
2023/08/14 09:04:24;;;;;;;3.75;3.13;;;28.70;73.60;;;;;;5052796;28;20175;-86
2023/08/14 09:06:50;;;;;;;3.63;2.80;;;28.50;73.80;;;;;;5048466;28;20176;-86
2023/08/14 09:09:16;;;;;;;3.85;2.80;;;28.40;74.50;;;;;;5054344;28;20214;-86
2023/08/14 09:11:42;;;;;;;4.70;2.63;;;28.20;75.20;;;;;;5044031;28;20175;-86
2023/08/14 09:14:08;;;;;;;4.88;3.10;;;28.10;76.00;;;;;;5048193;28;20425;-86
2023/08/14 09:16:35;;;;;;;3.55;2.70;;;28.00;76.30;;;;;;5052492;28;20566;-86
2023/08/14 09:19:00;;;;;;;6.10;3.13;;;27.90;76.60;;;;;;5055937;28;20262;-86
2023/08/14 09:21:27;;;;;;;3.72;2.78;;;27.70;77.80;;;;;;5052443;28;20389;-86
2023/08/14 09:23:54;;;;;;;3.15;2.70;;;27.60;79.20;;;;;;5056626;28;20209;-85
2023/08/14 09:26:20;;;;;;;3.42;2.65;;;27.50;79.30;;;;;;5055369;28;20184;-85
2023/08/14 09:28:46;;;;;;;3.17;2.58;;;27.40;80.10;;;;;;5054517;28;20238;-85
2023/08/14 09:31:13;;;;;;;4.72;2.78;;;27.40;80.70;;;;;;5055127;28;20179;-85
2023/08/14 09:33:44;;;;;;;4.32;2.55;;;27.40;80.70;;;;;;5054462;28;20428;-85
2023/08/14 09:36:12;;;;;;;4.30;2.85;;;27.40;80.80;;;;;;5046587;28;20190;-86
2023/08/14 09:38:38;;;;;;;4.47;2.75;;;27.40;81.40;;;;;;5056575;28;20183;-86
2023/08/14 09:41:04;;;;;;;3.53;2.70;;;27.30;81.70;;;;;;5051800;28;20218;-85
2023/08/14 09:43:31;;;;;;;4.22;2.20;;;27.40;81.60;;;;;;5053858;28;20187;-86
2023/08/14 09:45:58;;;;;;;3.63;2.58;;;27.40;81.80;;;;;;5053031;28;20257;-86
2023/08/14 09:48:40;;;;;;;3.95;2.50;;;27.40;81.90;;;;;;5053866;28;20206;-86
2023/08/14 09:51:12;;;;;;;2.78;2.30;;;27.40;82.10;;;;;;5045599;28;20185;-86
2023/08/14 09:53:57;;;;;;;3.10;2.38;;;27.40;82.30;;;;;;5051797;28;20167;-86
2023/08/14 09:56:24;;;;;;;3.72;2.63;;;27.30;82.50;;;;;;5049749;28;20176;-86
2023/08/14 09:58:52;;;;;;;3.47;2.50;;;27.40;82.60;;;;;;5055614;28;20240;-85
2023/08/14 10:01:20;;;;;;;3.65;2.70;;;27.50;82.40;;;;;;5053613;28;20499;-86
2023/08/14 10:03:49;;;;;;;3.83;2.40;;;27.40;82.40;;;;;;5052749;28;20277;-86
2023/08/14 10:06:16;;;;;;;3.33;2.47;;;27.40;82.40;;;;;;5057121;28;20183;-86
2023/08/14 10:08:44;;;;;;;2.65;2.10;;;27.40;82.40;;;;;;5054381;28;20457;-86
2023/08/14 10:11:16;;;;;;;3.38;2.50;;;27.40;82.70;;;;;;5056321;28;20175;-86
2023/08/14 10:14:15;;;;;;;3.60;2.40;;;27.50;82.30;;;;;;5036245;28;20551;-86
2023/08/14 10:16:42;;;;;;;3.53;2.25;;;27.50;82.10;;;;;;5018878;28;20194;-86
2023/08/14 10:19:13;;;;;;;5.22;2.30;;;27.40;82.30;;;;;;5052079;28;20236;-86
2023/08/14 10:21:40;;;;;;;4.10;2.30;;;27.40;82.30;;;;;;5056347;28;20454;-86
2023/08/14 10:24:07;;;;;;;3.90;2.17;;;27.50;82.10;;;;;;5051442;28;20176;-86
2023/08/14 10:26:33;;;;;;;3.08;2.20;;;27.50;82.20;;;;;;5053490;28;20252;-85
2023/08/14 10:29:00;;;;;;;3.40;2.40;;;27.40;82.40;;;;;;5051369;28;20203;-86
2023/08/14 10:31:30;;;;;;;4.07;2.30;;;27.50;82.30;;;;;;5053240;28;20585;-85
2023/08/14 10:33:58;;;;;;;3.45;2.30;;;27.40;82.70;;;;;;5054709;28;20341;-85
2023/08/14 10:36:30;;;;;;;3.25;2.33;;;27.40;82.70;;;;;;5051810;28;20427;-85
2023/08/14 10:39:10;;;;;;;5.03;2.30;;;27.50;82.40;;;;;;5052440;28;20457;-85
2023/08/14 10:41:36;;;;;;;3.60;1.95;;;27.40;82.60;;;;;;5048767;28;20189;-85
2023/08/14 10:44:09;;;;;;;2.30;2.00;;;27.50;82.80;;;;;;5054033;28;20216;-85
2023/08/14 10:46:42;;;;;;;2.35;2.10;;;27.50;82.80;;;;;;5053366;28;20207;-85
2023/08/14 10:49:11;;;;;;;2.80;1.92;;;27.50;82.50;;;;;;5051463;28;20207;-86
2023/08/14 10:51:41;;;;;;;3.90;2.42;;;27.50;82.70;;;;;;5061114;28;20489;-86
2023/08/14 10:54:12;;;;;;;3.83;2.22;;;27.70;82.10;;;;;;5055701;28;20427;-85
2023/08/14 10:56:51;;;;;;;3.13;2.15;;;27.60;82.10;;;;;;5050399;28;20181;-85
2023/08/14 10:59:28;;;;;;;3.63;2.25;;;27.60;82.60;;;;;;5046569;28;20238;-85
2023/08/14 11:02:09;;;;;;;3.50;2.20;;;27.50;83.10;;;;;;5060617;28;20228;-85
2023/08/14 11:04:57;;;;;;;2.80;2.00;;;27.50;82.70;;;;;;5031987;28;20195;-85
2023/08/14 11:07:29;;;;;;;3.55;2.20;;;27.50;82.80;;;;;;5045282;28;20270;-84
2023/08/14 11:09:57;;;;;;;2.88;2.10;;;27.50;83.40;;;;;;5066930;28;20709;-85
2023/08/14 11:12:23;;;;;;;3.35;2.28;;;27.50;83.50;;;;;;5053980;28;20483;-85
2023/08/14 11:14:49;;;;;;;3.70;1.92;;;27.40;83.90;;;;;;5050024;28;20186;-85
2023/08/14 11:17:15;;;;;;;3.05;2.35;;;27.40;84.10;;;;;;5049634;28;20270;-85
2023/08/14 11:19:41;;;;;;;3.63;2.05;;;27.40;84.00;;;;;;5047907;28;20192;-84
2023/08/14 11:22:06;;;;;;;3.65;2.30;;;27.50;83.60;;;;;;5055401;28;20646;-84
2023/08/14 11:24:32;;;;;;;2.83;2.20;;;27.40;84.00;;;;;;5056147;28;20195;-84
2023/08/14 11:27:00;;;;;;;3.53;2.28;;;27.50;84.10;;;;;;5056132;28;20279;-84
2023/08/14 11:29:26;;;;;;;2.85;2.10;;;27.50;84.00;;;;;;5050485;28;20204;-84
2023/08/14 11:31:52;;;;;;;2.58;2.10;;;27.50;83.90;;;;;;5049370;28;20484;-84
2023/08/14 11:34:18;;;;;;;3.28;2.10;;;27.50;84.00;;;;;;5050037;28;20172;-84
2023/08/14 11:36:59;;;;;;;2.90;2.10;;;27.60;84.10;;;;;;5053917;28;20310;-85
2023/08/14 11:39:26;;;;;;;2.78;2.00;;;27.50;84.40;;;;;;5058839;28;20469;-85
2023/08/14 11:41:52;;;;;;;2.33;1.90;;;27.50;84.40;;;;;;5053303;28;20361;-84
2023/08/14 11:44:18;;;;;;;3.25;2.05;;;27.50;85.00;;;;;;5061176;28;20243;-85
2023/08/14 11:46:44;;;;;;;3.13;2.20;;;27.40;85.00;;;;;;5049583;28;20617;-85
2023/08/14 11:49:13;;;;;;;3.17;2.17;;;27.50;84.90;;;;;;5052364;28;20448;-84
2023/08/14 11:51:40;;;;;;;2.17;1.90;;;27.50;85.00;;;;;;5048553;28;20176;-85
2023/08/14 11:54:08;;;;;;;3.65;2.30;;;27.40;85.30;;;;;;5051692;28;20199;-85
2023/08/14 11:56:35;;;;;;;2.78;2.20;;;27.40;85.70;;;;;;5050871;28;20187;-85
2023/08/14 11:59:01;;;;;;;2.67;2.10;;;27.30;85.80;;;;;;5048226;28;20291;-84
2023/08/14 12:01:27;;;;;;;3.05;2.05;;;27.40;85.70;;;;;;5053963;28;20465;-84
2023/08/14 12:03:53;;;;;;;2.33;1.98;;;27.40;85.70;;;;;;5051119;28;20651;-85
2023/08/14 12:06:18;;;;;;;2.47;2.10;;;27.50;86.10;;;;;;5048115;28;20192;-85
2023/08/14 12:08:45;;;;;;;2.40;1.90;;;27.50;86.30;;;;;;5056377;28;20298;-84
2023/08/14 12:11:20;;;;;;;4.75;2.30;;;27.50;87.10;;;;;;5047904;28;20168;-85
2023/08/14 12:13:52;;;;;;;3.97;2.30;;;27.40;87.40;;;;;;5050486;28;20176;-85
2023/08/14 12:16:21;;;;;;;2.58;2.10;;;27.50;87.30;;;;;;5051160;28;20194;-85
2023/08/14 12:18:49;;;;;;;3.55;1.90;;;27.50;87.20;;;;;;5058543;28;20423;-85
2023/08/14 12:21:15;;;;;;;3.67;2.17;;;27.50;87.30;;;;;;5054806;28;20239;-85
2023/08/14 12:23:45;;;;;;;3.70;2.13;;;27.50;87.60;;;;;;5052060;28;20279;-85
2023/08/14 12:26:11;;;;;;;3.38;2.10;;;27.50;88.00;;;;;;5049315;28;20180;-85
2023/08/14 12:28:39;;;;;;;3.65;2.05;;;27.50;87.80;;;;;;5053331;28;20204;-84
2023/08/14 12:31:05;;;;;;;3.10;2.10;;;27.40;88.50;;;;;;5051758;28;20176;-85
2023/08/14 12:33:30;;;;;;;3.45;2.30;;;27.50;88.20;;;;;;5057511;28;20457;-84
2023/08/14 12:35:56;;;;;;;3.45;2.15;;;27.50;87.90;;;;;;5051998;28;20180;-84
2023/08/14 12:38:31;;;;;;;3.97;2.03;;;27.60;87.80;;;;;;5051691;28;20176;-85
2023/08/14 12:40:57;;;;;;;3.70;2.08;;;27.60;87.90;;;;;;5044044;28;20177;-85
2023/08/14 12:43:22;;;;;;;3.03;2.25;;;27.60;88.00;;;;;;5053494;28;20248;-84
2023/08/14 12:45:48;;;;;;;3.03;2.08;;;27.60;87.80;;;;;;5051821;28;20203;-85
2023/08/14 12:48:14;;;;;;;3.97;2.30;;;27.60;87.60;;;;;;5049210;28;20219;-84